Time;durP1;ratioP1;P1;durP2;ratioP2;P2;SDS_P1;SDS_P2;PMS_P1;PMS_P2;Temp;Humidity;BMP_temperature;BMP_pressure;BME280_temperature;BME280_humidity;BME280_pressure;Samples;Min_cycle;Max_cycle;Signal;HPM_P1;HPM_P2
2021/12/29 00:00:27;;;;;;;81.03;29.30;;;2.30;80.00;;;;;;4136703;28;20790;-65
2021/12/29 00:02:28;;;;;;;76.85;29.80;;;2.30;80.00;;;;;;4138096;28;20674;-65
2021/12/29 00:04:29;;;;;;;81.03;28.80;;;2.30;79.90;;;;;;4136431;28;20042;-66
2021/12/29 00:06:29;;;;;;;75.35;28.40;;;2.30;79.90;;;;;;4138963;28;20039;-63
2021/12/29 00:08:30;;;;;;;70.57;28.10;;;2.30;79.90;;;;;;4138135;28;20401;-65
2021/12/29 00:10:31;;;;;;;71.32;26.63;;;2.30;79.90;;;;;;4136528;28;20141;-66
2021/12/29 00:12:39;;;;;;;73.13;27.88;;;2.30;79.90;;;;;;4137475;28;20018;-66
2021/12/29 00:14:40;;;;;;;80.38;28.95;;;2.30;79.80;;;;;;4140084;28;20117;-65
2021/12/29 00:16:40;;;;;;;73.93;27.73;;;2.30;79.90;;;;;;4137411;28;20030;-65
2021/12/29 00:18:41;;;;;;;80.40;28.85;;;2.30;80.00;;;;;;4141012;28;20402;-65
2021/12/29 00:20:42;;;;;;;76.60;28.25;;;2.30;80.00;;;;;;4139772;28;20061;-66
2021/12/29 00:22:43;;;;;;;77.18;26.83;;;2.40;80.00;;;;;;4137236;28;20118;-66
2021/12/29 00:24:45;;;;;;;73.57;28.33;;;2.40;80.00;;;;;;4139926;28;20021;-66
2021/12/29 00:26:45;;;;;;;78.30;28.88;;;2.50;80.00;;;;;;4135815;28;20032;-66
2021/12/29 00:28:46;;;;;;;80.75;28.55;;;2.50;80.00;;;;;;4131734;28;20510;-65
2021/12/29 00:30:47;;;;;;;72.38;28.67;;;2.50;79.90;;;;;;4135688;28;20108;-66
2021/12/29 00:32:48;;;;;;;71.53;28.35;;;2.50;79.80;;;;;;4133483;28;20508;-66
2021/12/29 00:34:48;;;;;;;70.47;27.42;;;2.60;79.70;;;;;;4133280;28;20038;-66
2021/12/29 00:36:49;;;;;;;70.80;26.58;;;2.60;79.60;;;;;;4130770;28;20104;-65
2021/12/29 00:38:49;;;;;;;78.47;28.23;;;2.60;79.50;;;;;;4138965;28;20032;-66
2021/12/29 00:40:50;;;;;;;76.13;28.50;;;2.60;79.60;;;;;;4132539;28;20031;-66
2021/12/29 00:42:51;;;;;;;67.05;26.98;;;2.60;80.30;;;;;;4136871;28;20041;-66
2021/12/29 00:44:51;;;;;;;74.90;29.23;;;2.60;79.60;;;;;;4139500;28;20034;-66
2021/12/29 00:46:54;;;;;;;79.18;29.63;;;2.60;79.50;;;;;;4137081;28;20248;-66
2021/12/29 00:48:54;;;;;;;73.17;28.63;;;2.60;79.40;;;;;;4156683;28;20029;-66
2021/12/29 00:50:55;;;;;;;78.82;30.00;;;2.60;79.30;;;;;;4134234;28;20022;-66
2021/12/29 00:52:55;;;;;;;84.78;30.92;;;2.60;79.20;;;;;;4136169;28;20502;-66
2021/12/29 00:54:56;;;;;;;73.20;29.52;;;2.60;79.10;;;;;;4135477;28;20348;-66
2021/12/29 00:56:57;;;;;;;82.18;29.77;;;2.50;79.00;;;;;;4136307;28;20482;-66
2021/12/29 00:58:57;;;;;;;72.72;27.73;;;2.50;79.10;;;;;;4132758;28;20041;-66
2021/12/29 01:00:58;;;;;;;70.05;25.70;;;2.50;79.20;;;;;;4138291;28;20429;-65
2021/12/29 01:02:59;;;;;;;77.75;27.83;;;2.50;79.20;;;;;;4137808;28;20084;-65
2021/12/29 01:05:00;;;;;;;69.15;27.00;;;2.50;79.40;;;;;;4135719;28;20543;-65
2021/12/29 01:07:01;;;;;;;66.28;27.27;;;2.50;79.40;;;;;;4132862;28;20036;-66
2021/12/29 01:09:01;;;;;;;69.35;27.45;;;2.60;79.40;;;;;;4134502;28;20026;-66
2021/12/29 01:11:02;;;;;;;70.13;27.55;;;2.60;79.30;;;;;;4140339;28;20132;-66
2021/12/29 01:13:04;;;;;;;63.78;23.85;;;2.60;79.20;;;;;;4135736;28;20596;-66
2021/12/29 01:15:05;;;;;;;70.13;25.35;;;2.60;79.10;;;;;;4135243;28;20114;-66
2021/12/29 01:17:06;;;;;;;74.63;26.33;;;2.60;79.10;;;;;;4133072;28;20026;-65
2021/12/29 01:19:17;;;;;;;72.32;26.15;;;2.60;79.00;;;;;;4139543;28;20025;-66
2021/12/29 01:21:17;;;;;;;77.65;28.73;;;2.60;78.90;;;;;;4138080;28;20037;-66
2021/12/29 01:23:18;;;;;;;75.55;28.55;;;2.60;78.80;;;;;;4135580;28;20030;-65
2021/12/29 01:25:19;;;;;;;76.65;28.27;;;2.60;78.70;;;;;;4136457;28;20029;-66
2021/12/29 01:27:20;;;;;;;84.47;30.38;;;2.60;78.70;;;;;;4137724;28;20523;-65
2021/12/29 01:29:20;;;;;;;81.10;29.17;;;2.60;78.70;;;;;;4136751;28;20180;-66
2021/12/29 01:31:21;;;;;;;77.50;28.38;;;2.60;78.70;;;;;;4137004;28;20030;-65
2021/12/29 01:33:22;;;;;;;82.03;29.70;;;2.50;78.60;;;;;;4134625;28;20453;-66
2021/12/29 01:35:23;;;;;;;81.25;26.77;;;2.50;78.60;;;;;;4134992;28;20045;-66
2021/12/29 01:37:23;;;;;;;76.28;26.30;;;2.50;78.60;;;;;;4133516;28;20103;-66
2021/12/29 01:39:24;;;;;;;79.95;28.33;;;2.40;78.70;;;;;;4131763;28;20030;-66
2021/12/29 01:41:24;;;;;;;72.95;27.35;;;2.40;78.80;;;;;;4136054;28;20053;-65
2021/12/29 01:43:25;;;;;;;74.75;27.17;;;2.40;79.00;;;;;;4138046;28;20478;-66
2021/12/29 01:45:26;;;;;;;72.90;27.63;;;2.40;79.10;;;;;;4139520;28;20094;-66
2021/12/29 01:47:28;;;;;;;73.25;26.85;;;2.40;79.20;;;;;;4130076;28;20137;-65
2021/12/29 01:49:29;;;;;;;85.20;31.45;;;2.40;79.20;;;;;;4133965;28;20235;-66
2021/12/29 01:51:30;;;;;;;92.07;32.55;;;2.50;79.20;;;;;;4140767;28;20048;-65
2021/12/29 01:53:33;;;;;;;84.45;32.15;;;2.50;79.10;;;;;;4135022;28;20591;-65
2021/12/29 01:55:33;;;;;;;91.68;33.08;;;2.50;79.00;;;;;;4137359;28;20055;-66
2021/12/29 01:57:34;;;;;;;91.15;32.83;;;2.50;79.00;;;;;;4140852;28;20049;-66
2021/12/29 01:59:35;;;;;;;87.00;32.15;;;2.50;79.00;;;;;;4132590;28;20229;-66
2021/12/29 02:01:36;;;;;;;79.45;30.88;;;2.50;79.00;;;;;;4132138;28;20057;-65
2021/12/29 02:03:36;;;;;;;82.97;30.80;;;2.50;79.10;;;;;;4135802;28;20030;-65
2021/12/29 02:05:38;;;;;;;86.18;32.05;;;2.50;79.10;;;;;;4134450;28;20288;-65
2021/12/29 02:07:38;;;;;;;86.70;31.95;;;2.50;79.10;;;;;;4140329;28;21276;-65
2021/12/29 02:09:39;;;;;;;85.20;32.75;;;2.60;79.10;;;;;;4134743;28;20360;-65
2021/12/29 02:11:42;;;;;;;83.60;31.45;;;2.60;79.00;;;;;;4132384;28;20025;-65
2021/12/29 02:13:43;;;;;;;90.70;31.95;;;2.60;78.90;;;;;;4137431;28;20057;-65
2021/12/29 02:15:43;;;;;;;86.43;32.00;;;2.60;78.90;;;;;;4135968;28;20033;-65
2021/12/29 02:17:44;;;;;;;87.53;31.98;;;2.60;78.70;;;;;;4135349;28;20037;-65
2021/12/29 02:19:46;;;;;;;92.00;33.50;;;2.60;78.70;;;;;;4136753;28;20030;-65
2021/12/29 02:21:56;;;;;;;87.13;32.67;;;2.60;78.70;;;;;;4134153;28;20483;-65
2021/12/29 02:26:09;;;;;;;89.70;32.95;;;2.50;78.70;;;;;;4136699;28;20041;-66
2021/12/29 02:28:10;;;;;;;89.13;32.47;;;2.50;78.80;;;;;;4135426;28;20030;-66
2021/12/29 02:30:11;;;;;;;85.88;31.90;;;2.50;78.90;;;;;;4142744;22;20050;-84
2021/12/29 02:32:12;;;;;;;80.43;30.95;;;2.50;79.00;;;;;;4109600;28;20024;-84
2021/12/29 02:34:14;;;;;;;78.25;30.20;;;2.50;79.80;;;;;;4115800;28;20050;-84
2021/12/29 02:36:16;;;;;;;85.18;30.30;;;2.50;79.00;;;;;;4147311;28;20030;-84
2021/12/29 02:38:28;;;;;;;83.53;31.67;;;2.60;79.10;;;;;;4142817;28;20057;-84
2021/12/29 02:40:31;;;;;;;85.75;31.25;;;2.50;79.00;;;;;;4158245;28;20504;-85
2021/12/29 02:42:38;;;;;;;91.10;31.08;;;2.60;79.10;;;;;;4128002;28;20022;-84
2021/12/29 02:44:41;;;;;;;80.68;30.85;;;2.60;79.10;;;;;;4127309;28;20035;-84
2021/12/29 02:46:42;;;;;;;76.35;30.50;;;2.70;79.20;;;;;;4136456;28;20196;-84
2021/12/29 02:48:49;;;;;;;92.35;33.15;;;2.70;79.10;;;;;;4133701;28;20031;-85
2021/12/29 02:50:54;;;;;;;80.05;31.08;;;2.80;79.10;;;;;;4161587;28;20021;-85
2021/12/29 02:52:55;;;;;;;83.53;31.30;;;2.70;78.90;;;;;;4104455;28;20570;-85
2021/12/29 02:54:56;;;;;;;84.93;31.58;;;2.80;78.80;;;;;;4129520;28;20640;-85
2021/12/29 02:56:56;;;;;;;90.25;32.95;;;2.70;78.70;;;;;;4101619;28;20035;-84
2021/12/29 02:58:57;;;;;;;90.85;33.85;;;2.70;78.60;;;;;;4148572;28;20029;-85
2021/12/29 03:00:59;;;;;;;84.55;33.45;;;2.70;78.60;;;;;;4117065;28;20157;-84
2021/12/29 03:02:59;;;;;;;83.45;31.30;;;2.70;78.60;;;;;;4133032;28;20488;-85
2021/12/29 03:05:00;;;;;;;85.28;30.83;;;2.70;78.60;;;;;;4131168;28;20065;-86
2021/12/29 03:07:01;;;;;;;81.68;30.90;;;2.70;78.70;;;;;;4150225;28;20111;-83
2021/12/29 03:09:03;;;;;;;90.72;32.72;;;2.60;78.70;;;;;;4164240;28;20021;-83
2021/12/29 03:11:05;;;;;;;89.35;33.20;;;2.70;78.70;;;;;;4150417;28;20045;-83
2021/12/29 03:13:06;;;;;;;100.50;35.40;;;2.70;78.70;;;;;;4163252;28;20108;-83
2021/12/29 03:15:07;;;;;;;90.55;33.50;;;2.70;78.60;;;;;;4122365;28;20034;-83
2021/12/29 03:17:08;;;;;;;93.53;33.03;;;2.60;78.50;;;;;;4139695;28;20026;-83
2021/12/29 03:19:09;;;;;;;91.78;33.33;;;2.60;78.50;;;;;;4107201;28;20037;-83
2021/12/29 03:21:10;;;;;;;96.43;34.35;;;2.70;78.60;;;;;;4172255;28;20029;-83
2021/12/29 03:23:11;;;;;;;97.25;35.42;;;2.60;78.50;;;;;;4121850;28;20478;-83
2021/12/29 03:25:11;;;;;;;96.75;34.53;;;2.60;78.60;;;;;;4155080;28;20041;-83
2021/12/29 03:27:12;;;;;;;92.30;34.35;;;2.60;78.60;;;;;;4138595;28;20473;-83
2021/12/29 03:29:13;;;;;;;86.65;31.67;;;2.60;79.30;;;;;;4135463;28;20447;-84
2021/12/29 03:31:14;;;;;;;88.53;32.17;;;2.50;78.60;;;;;;4125735;28;20026;-83
2021/12/29 03:33:15;;;;;;;91.20;32.13;;;2.50;78.80;;;;;;4132249;28;20018;-84
2021/12/29 03:35:16;;;;;;;94.38;33.58;;;2.50;78.80;;;;;;4131759;28;20136;-84
2021/12/29 03:37:16;;;;;;;87.63;33.05;;;2.60;79.00;;;;;;4144116;28;20046;-83
2021/12/29 03:39:17;;;;;;;78.45;32.28;;;2.50;79.00;;;;;;4132919;28;20042;-83
2021/12/29 03:41:19;;;;;;;89.32;32.72;;;2.50;79.00;;;;;;4130933;28;20035;-84
2021/12/29 03:43:19;;;;;;;89.00;32.08;;;2.50;79.40;;;;;;4164823;28;20024;-84
2021/12/29 03:45:20;;;;;;;96.28;33.85;;;2.60;79.20;;;;;;4116030;28;20062;-84
2021/12/29 03:47:21;;;;;;;93.55;33.15;;;2.70;79.20;;;;;;4148298;28;20025;-83
2021/12/29 03:49:21;;;;;;;97.95;32.85;;;2.50;79.00;;;;;;4117369;28;20035;-84
2021/12/29 03:51:22;;;;;;;99.30;35.47;;;2.60;78.90;;;;;;4131197;28;20030;-84
2021/12/29 03:53:23;;;;;;;104.75;36.55;;;2.50;78.80;;;;;;4150608;28;20038;-84
2021/12/29 03:55:24;;;;;;;98.50;35.65;;;2.50;78.70;;;;;;4146679;28;20128;-84
2021/12/29 03:57:24;;;;;;;96.32;34.22;;;2.50;78.50;;;;;;4117756;28;20085;-84
2021/12/29 03:59:25;;;;;;;95.82;34.92;;;2.50;78.50;;;;;;4101309;28;20431;-84
2021/12/29 04:01:26;;;;;;;94.93;35.42;;;2.50;78.40;;;;;;4149381;28;20153;-84
2021/12/29 04:03:26;;;;;;;106.45;36.65;;;2.50;78.30;;;;;;4132787;28;20022;-84
2021/12/29 04:05:27;;;;;;;87.88;34.58;;;2.40;78.30;;;;;;4115767;28;20524;-84
2021/12/29 04:07:28;;;;;;;102.70;36.30;;;2.40;78.40;;;;;;4117203;28;20042;-85
2021/12/29 04:09:28;;;;;;;95.13;33.30;;;2.30;78.40;;;;;;4130795;28;20065;-85
2021/12/29 04:11:29;;;;;;;90.13;32.95;;;2.30;78.50;;;;;;4130689;28;20027;-84
2021/12/29 04:13:29;;;;;;;96.93;34.15;;;2.30;78.70;;;;;;4101367;28;20020;-84
2021/12/29 04:15:30;;;;;;;96.75;35.15;;;2.30;78.90;;;;;;4147152;28;20415;-84
2021/12/29 04:17:37;;;;;;;97.25;33.45;;;2.40;79.90;;;;;;4116872;28;20074;-85
2021/12/29 04:20:54;;;;;;;106.25;36.55;;;2.30;79.20;;;;;;4146249;28;20033;-84
2021/12/29 04:22:01;;;;;;;96.82;33.80;;;2.30;79.10;;;;;;4141328;28;20045;-85
2021/12/29 04:24:02;;;;;;;103.40;35.05;;;2.30;79.10;;;;;;4131961;28;20496;-84
2021/12/29 04:26:04;;;;;;;94.30;34.45;;;2.40;79.10;;;;;;4132422;28;20080;-83
2021/12/29 04:28:13;;;;;;;100.97;36.42;;;2.40;79.00;;;;;;4130168;28;20034;-84
2021/12/29 04:30:14;;;;;;;98.47;36.15;;;2.40;79.00;;;;;;4121118;28;20113;-84
2021/12/29 04:32:14;;;;;;;96.82;35.25;;;2.40;79.00;;;;;;4131953;28;20030;-83
2021/12/29 04:34:15;;;;;;;105.07;37.22;;;2.40;79.00;;;;;;4132750;28;20022;-83
2021/12/29 04:36:15;;;;;;;97.63;35.40;;;2.40;79.10;;;;;;4129273;28;20082;-84
2021/12/29 04:38:16;;;;;;;98.47;35.70;;;2.40;79.10;;;;;;4127774;28;20041;-83
2021/12/29 04:40:17;;;;;;;99.07;33.67;;;2.40;79.80;;;;;;4128049;28;20042;-83
2021/12/29 04:42:18;;;;;;;101.50;36.78;;;2.50;79.00;;;;;;4131689;28;20042;-84
2021/12/29 04:44:18;;;;;;;107.10;36.85;;;2.40;78.90;;;;;;4145500;28;20025;-83
2021/12/29 04:46:26;;;;;;;96.38;35.35;;;2.50;78.90;;;;;;4114498;28;20026;-82
2021/12/29 04:48:30;;;;;;;103.13;35.50;;;2.50;79.60;;;;;;4129751;28;20034;-83
2021/12/29 04:50:37;;;;;;;99.25;34.63;;;2.50;78.80;;;;;;4130961;28;20058;-83
2021/12/29 04:52:38;;;;;;;100.65;34.50;;;2.50;78.70;;;;;;4144050;28;20033;-83
2021/12/29 04:54:38;;;;;;;98.07;34.55;;;2.50;78.80;;;;;;4133484;28;20053;-83
2021/12/29 04:56:39;;;;;;;108.00;36.30;;;2.50;78.70;;;;;;4124156;28;20070;-83
2021/12/29 04:58:40;;;;;;;95.07;34.53;;;2.40;78.60;;;;;;4113516;28;20440;-83
2021/12/29 05:00:40;;;;;;;107.25;35.78;;;2.50;78.70;;;;;;4147762;28;20026;-83
2021/12/29 05:02:42;;;;;;;106.88;36.10;;;2.50;78.70;;;;;;4131533;28;20035;-83
2021/12/29 05:04:54;;;;;;;105.25;36.05;;;2.50;78.70;;;;;;4161757;28;20531;-84
2021/12/29 05:09:14;;;;;;;100.05;34.63;;;2.60;78.70;;;;;;4131611;28;20323;-83
2021/12/29 05:11:15;;;;;;;102.95;35.35;;;2.50;78.60;;;;;;4117015;28;20105;-84
2021/12/29 05:13:16;;;;;;;100.88;36.28;;;2.60;78.60;;;;;;4133909;28;20579;-84
2021/12/29 05:15:16;;;;;;;102.47;34.45;;;2.60;78.50;;;;;;4136059;28;20034;-84
2021/12/29 05:17:17;;;;;;;99.35;35.13;;;2.50;78.40;;;;;;4131691;28;20026;-84
2021/12/29 05:19:18;;;;;;;91.72;33.17;;;2.60;78.50;;;;;;4133941;28;20034;-84
2021/12/29 05:21:18;;;;;;;106.28;36.17;;;2.60;78.40;;;;;;4146046;28;20100;-84
2021/12/29 05:23:19;;;;;;;97.07;33.67;;;2.50;78.30;;;;;;4149173;28;20029;-84
2021/12/29 05:25:20;;;;;;;101.40;33.72;;;2.60;78.40;;;;;;4113090;28;20678;-84
2021/12/29 05:27:20;;;;;;;101.57;35.97;;;2.60;78.30;;;;;;4114171;28;20094;-84
2021/12/29 05:29:21;;;;;;;100.85;34.00;;;2.60;78.30;;;;;;4114037;28;20122;-84
2021/12/29 05:31:21;;;;;;;106.97;35.88;;;2.60;78.20;;;;;;4113193;28;20039;-84
2021/12/29 05:33:22;;;;;;;94.80;35.60;;;2.60;78.20;;;;;;4115294;28;20050;-84
2021/12/29 05:35:23;;;;;;;99.82;34.42;;;2.60;78.10;;;;;;4132298;28;20065;-84
2021/12/29 05:37:24;;;;;;;99.18;35.47;;;2.70;78.10;;;;;;4140495;28;21877;-83
2021/12/29 05:39:24;;;;;;;98.93;34.40;;;2.60;77.90;;;;;;4145171;28;20117;-83
2021/12/29 05:41:25;;;;;;;87.45;30.50;;;2.60;77.80;;;;;;4114596;28;20668;-84
2021/12/29 05:43:25;;;;;;;92.47;33.75;;;2.60;77.80;;;;;;4111916;28;20031;-84
2021/12/29 05:45:27;;;;;;;105.47;35.30;;;2.60;77.80;;;;;;4127422;28;20424;-82
2021/12/29 05:47:27;;;;;;;103.82;35.67;;;2.60;77.80;;;;;;4132867;28;20037;-83
2021/12/29 05:49:28;;;;;;;113.32;37.05;;;2.60;77.80;;;;;;4136962;28;20023;-83
2021/12/29 05:51:28;;;;;;;104.85;36.28;;;2.60;77.80;;;;;;4167287;28;20406;-84
2021/12/29 05:53:29;;;;;;;95.10;32.55;;;2.60;77.80;;;;;;4135125;28;20442;-83
2021/12/29 05:55:30;;;;;;;95.13;33.25;;;2.70;77.90;;;;;;4150053;28;20088;-84
2021/12/29 05:57:31;;;;;;;102.40;33.67;;;2.60;77.80;;;;;;4163423;28;20033;-84
2021/12/29 05:59:31;;;;;;;104.88;34.47;;;2.60;77.80;;;;;;4129770;28;20033;-84
2021/12/29 06:01:33;;;;;;;109.95;36.53;;;2.60;77.80;;;;;;4117359;28;20050;-84
2021/12/29 06:03:33;;;;;;;112.13;36.50;;;2.60;78.00;;;;;;4131091;28;20031;-84
2021/12/29 06:05:34;;;;;;;105.45;33.60;;;2.70;78.00;;;;;;4131826;28;20064;-83
2021/12/29 06:07:35;;;;;;;109.65;33.95;;;2.70;77.90;;;;;;4151386;28;20036;-84
2021/12/29 06:09:36;;;;;;;98.38;34.03;;;2.80;77.90;;;;;;4128665;28;20080;-84
2021/12/29 06:11:36;;;;;;;103.90;34.63;;;2.70;77.60;;;;;;4122615;28;20034;-84
2021/12/29 06:13:37;;;;;;;94.07;32.90;;;2.70;78.40;;;;;;4163432;28;20029;-85
2021/12/29 06:15:37;;;;;;;103.32;34.85;;;2.70;77.60;;;;;;4101288;28;20035;-84
2021/12/29 06:17:38;;;;;;;97.53;34.33;;;2.70;77.60;;;;;;4129956;28;20038;-83
2021/12/29 06:19:40;;;;;;;121.55;36.13;;;2.70;77.60;;;;;;4129231;28;20066;-84
2021/12/29 06:21:41;;;;;;;109.20;36.42;;;2.70;77.50;;;;;;4148990;28;20096;-84
2021/12/29 06:23:45;;;;;;;107.43;36.72;;;2.70;77.70;;;;;;4128993;28;20214;-83
2021/12/29 06:25:45;;;;;;;112.47;36.25;;;2.70;78.30;;;;;;4137319;28;20058;-84
2021/12/29 06:27:46;;;;;;;106.70;34.72;;;2.60;77.60;;;;;;4132066;28;20077;-83
2021/12/29 06:29:47;;;;;;;98.28;34.47;;;2.60;77.60;;;;;;4148606;28;20099;-83
2021/12/29 06:31:48;;;;;;;110.07;36.22;;;2.60;77.70;;;;;;4144929;28;20038;-83
2021/12/29 06:33:48;;;;;;;94.30;34.72;;;2.60;77.80;;;;;;4151058;28;20113;-83
2021/12/29 06:35:49;;;;;;;94.07;33.45;;;2.60;77.70;;;;;;4119679;28;20035;-83
2021/12/29 06:37:50;;;;;;;102.75;35.33;;;2.60;77.70;;;;;;4133600;28;20030;-84
2021/12/29 06:39:50;;;;;;;100.43;34.28;;;2.60;77.60;;;;;;4134510;28;20419;-84
2021/12/29 06:41:51;;;;;;;93.45;33.53;;;2.70;78.40;;;;;;4120584;28;20046;-84
2021/12/29 06:43:52;;;;;;;107.10;36.50;;;2.60;77.50;;;;;;4152178;28;20464;-83
2021/12/29 06:45:52;;;;;;;103.88;35.38;;;2.60;77.50;;;;;;4134698;28;20073;-84
2021/12/29 06:47:53;;;;;;;99.63;34.97;;;2.60;77.40;;;;;;4170561;28;20332;-83
2021/12/29 06:49:54;;;;;;;99.65;35.65;;;2.60;77.40;;;;;;4137689;28;20770;-84
2021/12/29 06:51:54;;;;;;;105.22;36.00;;;2.70;77.40;;;;;;4135450;28;20084;-84
2021/12/29 06:53:55;;;;;;;94.40;33.95;;;2.60;77.30;;;;;;4136999;28;20061;-84
2021/12/29 06:55:56;;;;;;;96.43;35.35;;;2.70;77.40;;;;;;4139620;28;20094;-83
2021/12/29 06:57:56;;;;;;;94.38;33.50;;;2.60;77.30;;;;;;4150468;28;20030;-82
2021/12/29 06:59:57;;;;;;;97.47;33.75;;;2.60;78.00;;;;;;4132010;28;20507;-82
2021/12/29 07:01:58;;;;;;;90.13;31.23;;;2.60;77.30;;;;;;4158728;28;20056;-85
2021/12/29 07:03:59;;;;;;;91.22;32.28;;;2.60;77.30;;;;;;4131695;28;20038;-84
2021/12/29 07:06:00;;;;;;;90.25;33.53;;;2.60;77.30;;;;;;4133817;28;20034;-83
2021/12/29 07:08:00;;;;;;;92.32;32.72;;;2.60;77.20;;;;;;4152766;28;20032;-83
2021/12/29 07:10:01;;;;;;;96.07;32.40;;;2.60;77.90;;;;;;4130232;28;20018;-84
2021/12/29 07:12:02;;;;;;;87.97;31.83;;;2.60;77.20;;;;;;4148184;28;20033;-83
2021/12/29 07:14:04;;;;;;;98.95;35.50;;;2.60;77.10;;;;;;4132097;28;20022;-84
2021/12/29 07:16:05;;;;;;;102.65;36.83;;;2.60;77.00;;;;;;4134621;28;20030;-84
2021/12/29 07:18:06;;;;;;;98.28;34.88;;;2.50;76.90;;;;;;4148207;28;20034;-83
2021/12/29 07:20:07;;;;;;;88.25;30.70;;;2.50;76.80;;;;;;4097510;28;20050;-83
2021/12/29 07:22:08;;;;;;;97.13;32.65;;;2.50;76.90;;;;;;4151237;28;20101;-84
2021/12/29 07:24:09;;;;;;;82.88;32.03;;;2.50;77.00;;;;;;4113841;28;20053;-84
2021/12/29 07:26:10;;;;;;;89.30;33.38;;;2.50;77.10;;;;;;4128704;28;20034;-84
2021/12/29 07:28:11;;;;;;;98.05;34.13;;;2.50;77.10;;;;;;4114856;28;20033;-85
2021/12/29 07:30:12;;;;;;;100.90;35.53;;;2.50;77.00;;;;;;4147196;28;20026;-85
2021/12/29 07:32:12;;;;;;;85.53;30.80;;;2.50;77.00;;;;;;4114763;28;20038;-84
2021/12/29 07:34:13;;;;;;;87.72;30.50;;;2.50;77.00;;;;;;4118035;28;20023;-84
2021/12/29 07:36:13;;;;;;;93.25;31.73;;;2.50;77.10;;;;;;4133819;28;20033;-84
2021/12/29 07:38:14;;;;;;;91.90;32.90;;;2.50;77.10;;;;;;4149601;28;20068;-84
2021/12/29 07:40:15;;;;;;;93.47;32.85;;;2.50;77.20;;;;;;4149740;28;20026;-84
2021/12/29 07:42:15;;;;;;;97.18;32.40;;;2.50;77.20;;;;;;4136045;28;20077;-83
2021/12/29 07:44:17;;;;;;;90.30;32.03;;;2.50;77.20;;;;;;4117164;28;20022;-84
2021/12/29 07:46:18;;;;;;;87.05;32.80;;;2.50;77.20;;;;;;4165003;28;20030;-84
2021/12/29 07:48:20;;;;;;;87.72;32.30;;;2.50;77.20;;;;;;4129375;28;20610;-85
2021/12/29 07:50:20;;;;;;;95.20;31.42;;;2.50;77.20;;;;;;4096858;28;20109;-85
2021/12/29 07:52:21;;;;;;;98.70;32.67;;;2.50;77.30;;;;;;4123551;28;20030;-86
2021/12/29 07:54:22;;;;;;;93.90;34.85;;;2.50;77.20;;;;;;4142676;28;20029;-85
2021/12/29 07:56:22;;;;;;;92.55;32.30;;;2.50;77.20;;;;;;4146477;28;20029;-85
2021/12/29 07:58:23;;;;;;;100.85;35.22;;;2.50;77.10;;;;;;4144348;28;20026;-85
2021/12/29 08:00:24;;;;;;;108.13;37.97;;;2.50;77.10;;;;;;4124844;28;20416;-85
2021/12/29 08:02:27;;;;;;;104.20;36.47;;;2.60;77.20;;;;;;4123587;28;20125;-86
2021/12/29 08:04:28;;;;;;;;;;;2.50;77.20;;;;;;4128324;28;20035;-86
2021/12/29 08:06:28;;;;;;;105.35;36.25;;;2.50;77.30;;;;;;4161426;28;19924;-86
2021/12/29 08:08:29;;;;;;;111.00;36.20;;;2.40;77.10;;;;;;4116814;28;20034;-86
2021/12/29 08:10:30;;;;;;;126.50;37.67;;;2.40;77.30;;;;;;4128470;28;20030;-86
2021/12/29 08:12:31;;;;;;;124.35;37.63;;;2.40;77.30;;;;;;4126217;28;20125;-85
2021/12/29 08:14:31;;;;;;;126.13;37.70;;;2.40;77.40;;;;;;4143205;28;20041;-85
2021/12/29 08:16:32;;;;;;;120.32;37.05;;;2.40;77.50;;;;;;4126732;28;20031;-86
2021/12/29 08:18:33;;;;;;;116.78;37.00;;;2.30;77.60;;;;;;4142137;28;20053;-86
2021/12/29 08:20:35;;;;;;;130.80;38.38;;;2.40;77.80;;;;;;4130859;28;20382;-85
2021/12/29 08:22:36;;;;;;;138.80;41.07;;;2.40;77.90;;;;;;4157480;28;20040;-86
2021/12/29 08:24:36;;;;;;;146.85;40.40;;;2.40;78.00;;;;;;4141559;28;20367;-86
2021/12/29 08:26:37;;;;;;;142.52;39.33;;;2.40;78.00;;;;;;4127083;28;20027;-86
2021/12/29 08:28:38;;;;;;;136.38;39.00;;;2.40;78.00;;;;;;4143446;28;20037;-85
2021/12/29 08:30:38;;;;;;;138.68;38.83;;;2.30;78.00;;;;;;4123282;28;20054;-85
2021/12/29 08:32:39;;;;;;;143.82;39.03;;;2.40;78.10;;;;;;4121387;28;20630;-85
2021/12/29 08:34:40;;;;;;;140.32;38.78;;;2.40;78.20;;;;;;4121934;28;20041;-85
2021/12/29 08:36:41;;;;;;;131.18;37.53;;;2.40;78.30;;;;;;4140300;28;20016;-86
2021/12/29 08:38:42;;;;;;;133.55;35.85;;;2.40;78.40;;;;;;4121791;28;20035;-85
2021/12/29 08:40:43;;;;;;;139.93;36.83;;;2.40;78.40;;;;;;4106964;28;20671;-85
2021/12/29 08:42:44;;;;;;;135.40;37.05;;;2.40;78.50;;;;;;4121847;28;20026;-85
2021/12/29 08:44:44;;;;;;;125.80;39.05;;;2.40;78.50;;;;;;4105240;28;20046;-86
2021/12/29 08:46:45;;;;;;;117.93;35.83;;;2.50;78.60;;;;;;4121788;28;20050;-85
2021/12/29 08:48:46;;;;;;;123.05;35.30;;;2.50;78.60;;;;;;4120440;28;20045;-85
2021/12/29 08:50:47;;;;;;;135.45;38.83;;;2.60;78.60;;;;;;4120422;28;20030;-85
2021/12/29 08:52:47;;;;;;;147.68;36.70;;;2.60;78.60;;;;;;4121994;28;20038;-85
2021/12/29 08:54:48;;;;;;;151.43;37.92;;;2.70;78.50;;;;;;4108513;28;20050;-85
2021/12/29 08:56:49;;;;;;;161.32;39.65;;;2.60;78.30;;;;;;4120481;28;20030;-85
2021/12/29 08:58:50;;;;;;;150.30;36.75;;;2.60;78.30;;;;;;4137904;28;20034;-85
2021/12/29 09:00:52;;;;;;;152.63;38.95;;;2.60;78.20;;;;;;4120611;28;20038;-86
2021/12/29 09:02:52;;;;;;;149.55;37.95;;;2.60;78.30;;;;;;4106091;28;20089;-85
2021/12/29 09:04:53;;;;;;;147.73;39.55;;;2.60;78.40;;;;;;4136211;28;20069;-85
2021/12/29 09:06:53;;;;;;;149.50;36.22;;;2.60;78.50;;;;;;4115234;28;20656;-85
2021/12/29 09:08:54;;;;;;;146.07;36.58;;;2.60;78.60;;;;;;4123932;28;20027;-85
2021/12/29 09:10:55;;;;;;;148.00;39.10;;;2.60;78.70;;;;;;4089591;28;20058;-86
2021/12/29 09:12:56;;;;;;;143.15;38.97;;;2.70;78.80;;;;;;4136763;28;20021;-85
2021/12/29 09:14:56;;;;;;;152.95;40.45;;;2.70;78.80;;;;;;4118035;28;20026;-85
2021/12/29 09:16:57;;;;;;;151.65;38.70;;;2.70;78.70;;;;;;4119709;28;20065;-86
2021/12/29 09:18:58;;;;;;;132.85;37.30;;;2.80;78.80;;;;;;4134150;28;20057;-85
2021/12/29 09:21:06;;;;;;;142.10;37.92;;;2.80;78.70;;;;;;4115914;28;20591;-85
2021/12/29 09:23:08;;;;;;;141.85;37.95;;;2.80;78.70;;;;;;4104386;28;20109;-85
2021/12/29 09:25:08;;;;;;;155.23;39.40;;;2.80;77.90;;;;;;4121545;28;20093;-85
2021/12/29 09:27:09;;;;;;;150.27;40.10;;;2.80;78.50;;;;;;4149885;28;20042;-85
2021/12/29 09:29:10;;;;;;;221.95;46.78;;;2.80;78.40;;;;;;4116621;28;20030;-85
2021/12/29 09:31:11;;;;;;;188.18;44.20;;;2.80;78.30;;;;;;4122431;28;20046;-84
2021/12/29 09:33:11;;;;;;;153.75;42.38;;;2.70;78.10;;;;;;4117530;28;20111;-85
2021/12/29 09:35:12;;;;;;;156.02;45.00;;;2.80;78.20;;;;;;4118902;28;20049;-85
2021/12/29 09:37:13;;;;;;;172.63;46.42;;;2.70;78.30;;;;;;4119424;28;20038;-85
2021/12/29 09:39:14;;;;;;;175.82;46.08;;;2.70;78.40;;;;;;4119627;28;20067;-85
2021/12/29 09:41:16;;;;;;;170.07;44.58;;;2.70;78.50;;;;;;4136651;28;20641;-85
2021/12/29 09:43:17;;;;;;;187.65;46.13;;;2.80;78.70;;;;;;4134547;28;20034;-84
2021/12/29 09:45:18;;;;;;;171.18;46.33;;;2.70;78.80;;;;;;4119881;28;20542;-85
2021/12/29 09:47:19;;;;;;;192.07;47.22;;;2.80;78.90;;;;;;4115100;28;20026;-85
2021/12/29 09:49:22;;;;;;;189.02;48.05;;;2.80;79.10;;;;;;4122175;28;20030;-85
2021/12/29 09:51:23;;;;;;;195.00;48.60;;;2.90;79.10;;;;;;4093444;28;20152;-85
2021/12/29 09:53:23;;;;;;;170.38;47.20;;;2.90;79.00;;;;;;4150693;28;20093;-85
2021/12/29 09:55:24;;;;;;;147.90;42.08;;;2.90;78.90;;;;;;4123865;28;20049;-85
2021/12/29 09:57:25;;;;;;;172.05;47.65;;;2.90;78.90;;;;;;4137102;28;20100;-85
2021/12/29 09:59:26;;;;;;;164.20;45.45;;;2.90;78.90;;;;;;4128883;28;20662;-85
2021/12/29 10:01:27;;;;;;;170.35;44.90;;;3.00;79.00;;;;;;4105010;28;20027;-85
2021/12/29 10:03:30;;;;;;;183.07;47.25;;;2.90;78.90;;;;;;4123487;28;20034;-85
2021/12/29 10:05:31;;;;;;;154.05;43.78;;;2.90;78.80;;;;;;4107032;28;20039;-85
2021/12/29 10:07:32;;;;;;;149.70;43.58;;;2.90;78.70;;;;;;4119898;28;20118;-85
2021/12/29 10:09:42;;;;;;;180.60;46.20;;;3.00;78.80;;;;;;4141815;28;20052;-85
2021/12/29 10:11:46;;;;;;;162.13;45.45;;;3.00;78.80;;;;;;4126040;28;20513;-85
2021/12/29 10:13:50;;;;;;;160.48;45.80;;;3.00;78.80;;;;;;4130827;28;20041;-85
2021/12/29 10:15:55;;;;;;;149.80;45.63;;;2.90;78.60;;;;;;4092116;28;20035;-86
2021/12/29 10:18:09;;;;;;;143.45;40.85;;;2.90;78.60;;;;;;4121237;28;20207;-86
2021/12/29 10:20:18;;;;;;;140.20;39.83;;;2.90;78.70;;;;;;4104791;28;20893;-86
2021/12/29 10:22:21;;;;;;;126.90;37.05;;;2.90;78.90;;;;;;4135882;28;20040;-86
2021/12/29 10:24:22;;;;;;;138.63;39.47;;;3.00;79.00;;;;;;4122300;28;20527;-85